createdAt,value
2023-03-13T00:00:11.966Z,4.72
2023-03-13T00:05:15.077Z,5.10
2023-03-13T00:10:19.552Z,5.22
2023-03-13T00:15:22.563Z,3.97
2023-03-13T00:20:25.534Z,5.53
2023-03-13T00:25:29.693Z,4.57
2023-03-13T00:30:32.537Z,4.00
2023-03-13T00:35:35.399Z,4.65
2023-03-13T00:40:39.653Z,3.83
2023-03-13T00:45:42.407Z,4.05
2023-03-13T00:50:45.188Z,5.55
2023-03-13T00:55:57.148Z,4.38
2023-03-13T01:01:07.881Z,4.20
2023-03-13T01:06:13.884Z,4.95
2023-03-13T01:11:20.508Z,5.13
2023-03-13T01:16:24.383Z,5.32
2023-03-13T01:21:27.673Z,5.50
2023-03-13T01:26:33.694Z,4.88
2023-03-13T01:31:37.191Z,4.18
2023-03-13T01:36:43.720Z,4.07
2023-03-13T01:41:47.784Z,3.97
2023-03-13T01:46:51.055Z,8.48
2023-03-13T01:52:00.797Z,4.97
2023-03-13T01:57:12.004Z,4.00
2023-03-13T02:02:17.065Z,4.70
2023-03-13T02:07:24.349Z,5.20
2023-03-13T02:12:33.043Z,5.68
2023-03-13T02:17:37.879Z,5.32
2023-03-13T02:22:49.763Z,3.45
2023-03-13T02:27:59.593Z,6.22
2023-03-13T02:33:04.556Z,5.70
2023-03-13T02:38:11.342Z,4.60
2023-03-13T02:43:18.070Z,4.30
2023-03-13T02:48:32.214Z,4.93
2023-03-13T02:53:36.880Z,3.72
2023-03-13T02:58:50.312Z,4.20
2023-03-13T03:09:00.615Z,4.65
2023-03-13T03:14:07.898Z,3.22
2023-03-13T03:19:15.430Z,2.95
2023-03-13T03:24:18.366Z,2.83
2023-03-13T03:29:22.722Z,4.47
2023-03-13T03:34:28.366Z,3.55
2023-03-13T03:39:32.479Z,2.83
2023-03-13T03:44:37.155Z,3.80
2023-03-13T03:49:40.953Z,3.17
2023-03-13T03:54:46.282Z,3.13
2023-03-13T03:59:52.145Z,3.22
2023-03-13T04:04:54.961Z,2.33
2023-03-13T04:10:03.254Z,4.43
2023-03-13T04:15:19.398Z,3.83
2023-03-13T04:20:22.432Z,2.92
2023-03-13T04:25:25.750Z,2.80
2023-03-13T04:30:32.675Z,2.60
2023-03-13T04:36:11.162Z,2.95
2023-03-13T04:41:32.617Z,1.92
2023-03-13T04:46:47.524Z,2.38
2023-03-13T04:52:16.540Z,2.08
2023-03-13T04:57:42.244Z,2.35
2023-03-13T05:02:58.734Z,4.50
2023-03-13T05:08:27.195Z,3.38
2023-03-13T05:13:48.284Z,1.10
2023-03-13T05:19:04.508Z,1.52
2023-03-13T05:24:37.311Z,5.22
2023-03-13T05:29:57.583Z,0.70
2023-03-13T05:35:16.962Z,0.90
2023-03-13T05:40:44.078Z,0.65
2023-03-13T05:51:44.544Z,0.70
2023-03-13T05:57:03.993Z,1.20
2023-03-13T06:02:42.687Z,0.63
2023-03-13T06:07:52.093Z,0.80
2023-03-13T06:12:56.096Z,0.93
2023-03-13T06:18:03.037Z,0.77
2023-03-13T06:23:07.236Z,1.10
2023-03-13T06:28:10.097Z,0.90
2023-03-13T06:33:13.301Z,1.63
2023-03-13T06:38:17.516Z,0.98
2023-03-13T06:43:21.153Z,0.63
2023-03-13T06:48:24.176Z,0.90
2023-03-13T06:53:32.129Z,0.68
2023-03-13T06:58:37.487Z,0.77
2023-03-13T07:03:44.023Z,1.10
2023-03-13T07:08:48.567Z,1.07
2023-03-13T07:13:51.453Z,1.10
2023-03-13T07:18:54.308Z,3.30
2023-03-13T07:23:59.987Z,1.67
2023-03-13T07:29:03.895Z,1.73
2023-03-13T07:34:07.251Z,1.90
2023-03-13T07:39:12.667Z,1.50
2023-03-13T07:44:15.425Z,2.00
2023-03-13T07:49:18.269Z,1.98
2023-03-13T07:54:23.231Z,2.15
2023-03-13T07:59:27.133Z,2.28
2023-03-13T08:04:31.522Z,2.35
2023-03-13T08:09:36.194Z,2.05
2023-03-13T08:14:39.004Z,2.17
2023-03-13T08:19:42.142Z,3.13
2023-03-13T08:24:48.996Z,2.20
2023-03-13T08:29:51.828Z,3.03
2023-03-13T08:34:54.836Z,2.47
2023-03-13T08:39:59.454Z,1.98
2023-03-13T08:45:02.394Z,2.08
2023-03-13T08:50:06.053Z,2.50
2023-03-13T08:55:12.488Z,3.22
2023-03-13T09:00:16.819Z,2.03
2023-03-13T09:05:23.733Z,2.30
2023-03-13T09:10:27.947Z,2.45
2023-03-13T09:15:31.552Z,2.22
2023-03-13T09:20:36.475Z,1.98
2023-03-13T09:25:42.166Z,1.75
2023-03-13T09:30:45.312Z,2.55
2023-03-13T09:35:50.957Z,2.67
2023-03-13T09:41:05.928Z,2.33
2023-03-13T09:46:16.838Z,2.58
2023-03-13T09:51:25.799Z,2.17
2023-03-13T09:56:35.830Z,2.10
2023-03-13T10:01:43.336Z,1.80
2023-03-13T10:06:50.215Z,2.25
2023-03-13T10:12:03.173Z,1.85
2023-03-13T10:17:12.230Z,2.05
2023-03-13T10:22:21.152Z,2.00
2023-03-13T10:27:26.127Z,2.35
2023-03-13T10:32:29.674Z,2.15
2023-03-13T10:37:42.302Z,1.85
2023-03-13T10:42:48.922Z,1.92
2023-03-13T10:47:55.829Z,1.83
2023-03-13T10:53:00.446Z,2.05
2023-03-13T10:58:06.989Z,2.58
2023-03-13T11:03:18.389Z,1.83
2023-03-13T11:08:24.504Z,2.28
2023-03-13T11:13:37.042Z,2.13
2023-03-13T11:18:46.177Z,2.05
2023-03-13T11:24:02.000Z,3.58
2023-03-13T11:29:14.708Z,3.60
2023-03-13T11:34:26.529Z,2.80
2023-03-13T11:39:48.817Z,2.35
2023-03-13T11:45:04.493Z,3.05
2023-03-13T11:50:27.817Z,2.03
2023-03-13T11:55:45.881Z,2.90
2023-03-13T12:00:55.138Z,2.22
2023-03-13T12:06:02.372Z,2.40
2023-03-13T12:11:15.377Z,10.35
2023-03-13T12:16:23.437Z,2.42
2023-03-13T12:21:31.535Z,2.60
2023-03-13T12:26:42.297Z,2.42
2023-03-13T12:31:51.784Z,2.47
2023-03-13T12:37:01.068Z,2.47
2023-03-13T12:42:18.430Z,2.40
2023-03-13T12:47:31.597Z,2.55
2023-03-13T12:52:48.360Z,2.35
2023-03-13T12:58:17.589Z,2.92
2023-03-13T13:03:31.781Z,2.22
2023-03-13T13:08:37.912Z,2.00
2023-03-13T13:13:41.221Z,1.98
2023-03-13T13:18:45.707Z,1.77
2023-03-13T13:23:56.370Z,1.83
2023-03-13T13:29:02.231Z,3.50
2023-03-13T13:34:06.652Z,1.63
2023-03-13T13:39:39.140Z,4.03
2023-03-13T13:45:00.556Z,1.10
2023-03-13T13:50:19.429Z,1.00
2023-03-13T13:55:44.589Z,1.02
2023-03-13T14:00:54.404Z,1.20
2023-03-13T14:06:04.038Z,0.85
2023-03-13T14:11:22.422Z,1.00
2023-03-13T14:16:28.020Z,1.10
2023-03-13T14:21:33.430Z,1.13
2023-03-13T14:26:45.800Z,1.30
2023-03-13T14:31:56.429Z,1.30
2023-03-13T14:37:17.231Z,1.00
2023-03-13T14:42:21.674Z,1.85
2023-03-13T14:47:30.927Z,1.83
2023-03-13T14:52:35.936Z,1.17
2023-03-13T14:58:05.372Z,1.30
2023-03-13T15:03:32.608Z,1.55
2023-03-13T15:08:39.480Z,1.38
2023-03-13T15:13:44.465Z,1.00
2023-03-13T15:18:51.706Z,1.30
2023-03-13T15:24:02.702Z,1.40
2023-03-13T15:29:06.169Z,1.20
2023-03-13T15:34:15.265Z,1.23
2023-03-13T15:39:20.688Z,2.42
2023-03-13T15:44:27.535Z,1.02
2023-03-13T15:49:30.467Z,0.80
2023-03-13T15:54:50.775Z,1.08
2023-03-13T15:59:57.886Z,1.17
2023-03-13T16:05:00.697Z,0.70
2023-03-13T16:10:05.908Z,1.17
2023-03-13T16:15:10.860Z,0.73
2023-03-13T16:20:16.998Z,0.85
2023-03-13T16:25:21.629Z,2.42
2023-03-13T16:30:27.585Z,1.00
2023-03-13T16:35:30.569Z,1.25
2023-03-13T16:40:35.543Z,0.80
2023-03-13T16:45:40.488Z,1.30
2023-03-13T16:50:46.441Z,2.40
2023-03-13T16:55:50.980Z,1.33
2023-03-13T17:01:05.022Z,1.40
2023-03-13T17:06:16.703Z,2.70
2023-03-13T17:11:22.586Z,1.95
2023-03-13T17:16:32.198Z,1.58
2023-03-13T17:21:36.703Z,2.40
2023-03-13T17:26:41.415Z,2.58
2023-03-13T17:31:44.605Z,1.50
2023-03-13T17:36:48.784Z,1.30
2023-03-13T17:41:52.884Z,1.20
2023-03-13T17:46:56.485Z,0.95
2023-03-13T17:51:59.358Z,1.27
2023-03-13T17:57:14.156Z,3.00
2023-03-13T18:02:19.209Z,1.45
2023-03-13T18:07:26.037Z,0.90
2023-03-13T18:12:31.284Z,0.90
2023-03-13T18:17:34.101Z,2.75
2023-03-13T18:22:36.910Z,1.00
2023-03-13T18:27:41.729Z,0.80
2023-03-13T18:32:45.601Z,1.00
2023-03-13T18:37:49.372Z,1.00
2023-03-13T18:42:53.565Z,1.58
2023-03-13T18:47:56.418Z,1.80
2023-03-13T18:53:01.071Z,1.55
2023-03-13T18:58:05.206Z,3.20
2023-03-13T19:03:08.031Z,0.85
2023-03-13T19:08:11.655Z,0.90
2023-03-13T19:13:15.849Z,0.88
2023-03-13T19:18:18.769Z,3.17
2023-03-13T19:23:21.592Z,1.05
2023-03-13T19:28:25.835Z,1.20
2023-03-13T19:33:28.732Z,1.30
2023-03-13T19:38:32.752Z,2.00
2023-03-13T19:43:38.233Z,1.48
2023-03-13T19:48:41.089Z,1.08
2023-03-13T19:53:44.086Z,0.82
2023-03-13T19:58:49.749Z,1.27
2023-03-13T20:03:52.634Z,2.17
2023-03-13T20:08:57.326Z,0.93
2023-03-13T20:14:01.598Z,0.88
2023-03-13T20:19:05.794Z,4.50
2023-03-13T20:24:09.257Z,1.27
2023-03-13T20:29:13.793Z,2.70
2023-03-13T20:34:16.573Z,1.83
2023-03-13T20:39:20.765Z,1.90
2023-03-13T20:44:25.404Z,1.05
2023-03-13T20:49:28.755Z,1.20
2023-03-13T20:54:31.598Z,1.25
2023-03-13T20:59:35.852Z,1.33
2023-03-13T21:04:38.896Z,2.15
2023-03-13T21:09:41.929Z,2.17
2023-03-13T21:14:46.821Z,1.55
2023-03-13T21:19:49.840Z,1.15
2023-03-13T21:24:52.650Z,1.10
2023-03-13T21:29:56.944Z,1.13
2023-03-13T21:34:59.699Z,1.40
2023-03-13T21:40:05.726Z,1.08
2023-03-13T21:45:12.176Z,0.90
2023-03-13T21:50:15.026Z,1.10
2023-03-13T21:55:18.557Z,1.02
2023-03-13T22:00:23.684Z,0.98
2023-03-13T22:05:26.491Z,1.10
2023-03-13T22:10:29.494Z,0.70
2023-03-13T22:15:33.691Z,0.80
2023-03-13T22:20:36.557Z,1.00
2023-03-13T22:25:39.598Z,0.80
2023-03-13T22:30:45.223Z,0.60
2023-03-13T22:35:52.258Z,1.05
2023-03-13T22:40:59.973Z,1.10
2023-03-13T22:46:04.712Z,0.73
2023-03-13T22:51:10.520Z,1.00
2023-03-13T22:56:13.926Z,1.33
2023-03-13T23:01:19.420Z,1.17
2023-03-13T23:06:24.383Z,1.13
2023-03-13T23:11:27.170Z,0.90
2023-03-13T23:16:32.219Z,0.90
2023-03-13T23:21:35.334Z,1.10
2023-03-13T23:26:38.309Z,1.35
2023-03-13T23:31:42.856Z,1.55
2023-03-13T23:36:45.805Z,1.23
2023-03-13T23:41:48.558Z,1.40
2023-03-13T23:46:52.829Z,1.52
2023-03-13T23:51:55.726Z,1.15
2023-03-13T23:56:58.569Z,1.85
